Time;durP1;ratioP1;P1;durP2;ratioP2;P2;SDS_P1;SDS_P2;PMS_P1;PMS_P2;Temp;Humidity;BMP_temperature;BMP_pressure;BME280_temperature;BME280_humidity;BME280_pressure;Samples;Min_cycle;Max_cycle;Signal;HPM_P1;HPM_P2
2021/03/07 00:00:01;;;;;;;17.80;9.17;;;0.70;99.90;;;;;;5035538;28;20218;-76
2021/03/07 00:02:28;;;;;;;18.43;8.87;;;0.70;99.90;;;;;;5035574;28;20201;-76
2021/03/07 00:04:55;;;;;;;17.07;9.03;;;0.70;99.90;;;;;;5035375;28;20293;-76
2021/03/07 00:07:21;;;;;;;19.50;8.90;;;0.70;99.90;;;;;;5035548;28;20692;-76
2021/03/07 00:09:47;;;;;;;20.87;8.90;;;0.80;99.90;;;;;;5035412;28;20206;-75
2021/03/07 00:12:14;;;;;;;17.10;8.63;;;0.80;99.90;;;;;;5035419;28;20233;-76
2021/03/07 00:14:40;;;;;;;16.53;8.57;;;0.80;99.90;;;;;;5035461;28;20198;-76
2021/03/07 00:17:06;;;;;;;16.70;8.60;;;0.80;99.90;;;;;;5034611;28;20237;-76
2021/03/07 00:19:34;;;;;;;18.43;8.43;;;0.70;99.90;;;;;;5034959;28;20221;-76
2021/03/07 00:22:01;;;;;;;14.73;8.37;;;0.80;99.90;;;;;;5034861;28;20205;-76
2021/03/07 00:24:27;;;;;;;17.00;8.03;;;0.70;99.90;;;;;;5035206;28;20312;-76
2021/03/07 00:26:53;;;;;;;15.00;8.27;;;0.60;99.90;;;;;;5035010;28;20198;-76
2021/03/07 00:29:20;;;;;;;22.63;8.47;;;0.70;99.90;;;;;;5035131;28;20198;-76
2021/03/07 00:31:46;;;;;;;22.00;9.77;;;0.60;99.90;;;;;;5034808;28;20201;-76
2021/03/07 00:34:12;;;;;;;21.73;10.00;;;0.50;99.90;;;;;;5035029;28;20208;-76
2021/03/07 00:36:40;;;;;;;26.60;11.20;;;0.60;99.90;;;;;;5035223;28;20194;-74
2021/03/07 00:39:07;;;;;;;19.93;11.20;;;0.50;99.90;;;;;;5034728;28;20225;-76
2021/03/07 00:41:33;;;;;;;27.03;10.10;;;0.40;99.90;;;;;;5034700;28;20205;-76
2021/03/07 00:44:00;;;;;;;21.40;9.57;;;0.50;99.90;;;;;;5034769;28;20707;-76
2021/03/07 00:46:26;;;;;;;22.80;10.13;;;0.50;99.90;;;;;;5034552;28;20201;-76
2021/03/07 00:48:52;;;;;;;17.77;9.73;;;0.40;99.90;;;;;;5034820;28;20200;-74
2021/03/07 00:51:19;;;;;;;17.80;10.00;;;0.40;99.90;;;;;;5034724;28;20292;-76
2021/03/07 00:53:46;;;;;;;21.00;10.03;;;0.30;99.90;;;;;;5034704;28;20486;-74
2021/03/07 00:56:12;;;;;;;16.87;8.63;;;0.30;99.90;;;;;;5034445;28;20197;-76
2021/03/07 00:58:39;;;;;;;19.53;9.50;;;0.30;99.90;;;;;;5034309;28;20274;-74
2021/03/07 01:01:05;;;;;;;18.73;9.60;;;0.40;99.90;;;;;;5034092;28;20673;-74
2021/03/07 01:03:31;;;;;;;14.20;8.40;;;0.40;99.90;;;;;;5034340;28;20206;-76
2021/03/07 01:05:58;;;;;;;16.23;8.90;;;0.50;99.90;;;;;;5033935;28;20681;-76
2021/03/07 01:08:24;;;;;;;17.87;8.07;;;0.50;99.90;;;;;;5034199;28;20566;-76
2021/03/07 01:10:51;;;;;;;15.10;8.13;;;0.50;99.90;;;;;;5034426;28;20662;-77
2021/03/07 01:13:22;;;;;;;14.53;8.60;;;0.60;99.90;;;;;;5034042;28;20197;-76
2021/03/07 01:15:49;;;;;;;15.20;7.90;;;0.60;99.90;;;;;;5034031;28;20246;-76
2021/03/07 01:18:15;;;;;;;15.03;8.30;;;0.70;99.90;;;;;;5033646;28;20229;-74
2021/03/07 01:20:43;;;;;;;15.63;8.43;;;0.60;99.90;;;;;;5033887;28;20677;-76
2021/03/07 01:23:09;;;;;;;18.57;9.30;;;0.60;99.90;;;;;;5033985;28;20285;-77
2021/03/07 01:25:36;;;;;;;13.90;8.27;;;0.40;99.90;;;;;;5033910;28;20203;-76
2021/03/07 01:28:05;;;;;;;16.77;9.00;;;0.30;99.90;;;;;;5033790;28;20202;-76
2021/03/07 01:30:33;;;;;;;16.00;9.23;;;0.30;99.90;;;;;;5033932;28;20193;-77
2021/03/07 01:32:59;;;;;;;18.97;9.10;;;0.20;99.90;;;;;;5033729;28;20193;-76
2021/03/07 01:35:26;;;;;;;15.57;9.03;;;0.30;99.90;;;;;;5033866;28;20258;-77
2021/03/07 01:37:52;;;;;;;13.87;9.13;;;0.40;99.90;;;;;;5033565;28;20245;-77
2021/03/07 01:40:23;;;;;;;17.43;9.57;;;0.40;99.90;;;;;;5033653;28;20241;-76
2021/03/07 01:42:50;;;;;;;18.30;10.30;;;0.50;99.90;;;;;;5033447;28;20302;-76
2021/03/07 01:45:19;;;;;;;17.80;10.20;;;0.70;99.90;;;;;;5033808;28;20235;-76
2021/03/07 01:47:47;;;;;;;21.00;10.27;;;0.70;99.90;;;;;;5033254;28;20576;-77
2021/03/07 01:50:16;;;;;;;16.63;10.20;;;0.60;99.90;;;;;;5033601;28;20197;-76
2021/03/07 01:52:42;;;;;;;20.10;10.27;;;0.50;99.90;;;;;;5033464;28;20322;-76
2021/03/07 01:55:10;;;;;;;17.30;9.87;;;0.50;99.90;;;;;;5033034;28;20204;-76
2021/03/07 01:57:38;;;;;;;18.43;10.37;;;0.50;99.90;;;;;;5032872;28;20675;-75
2021/03/07 02:00:07;;;;;;;19.13;9.43;;;0.30;99.90;;;;;;5033138;28;20296;-75
2021/03/07 02:02:34;;;;;;;21.97;10.23;;;0.20;99.90;;;;;;5033398;28;20196;-74
2021/03/07 02:05:01;;;;;;;19.17;10.07;;;0.10;99.90;;;;;;5033245;28;20798;-76
2021/03/07 02:07:27;;;;;;;17.73;10.47;;;0.10;99.90;;;;;;5033275;28;20197;-74
2021/03/07 02:09:54;;;;;;;21.90;10.80;;;0.10;99.90;;;;;;5033276;28;20267;-77
2021/03/07 02:12:22;;;;;;;19.57;10.90;;;0.10;99.90;;;;;;5033074;28;20197;-74
2021/03/07 02:14:51;;;;;;;18.03;10.93;;;0.10;99.90;;;;;;5032946;28;20502;-75
2021/03/07 02:17:17;;;;;;;22.23;10.67;;;0.10;99.90;;;;;;5033162;28;20562;-77
2021/03/07 02:19:45;;;;;;;21.53;11.27;;;0.00;99.90;;;;;;5032901;28;20689;-75
2021/03/07 02:22:17;;;;;;;19.53;10.33;;;0.00;99.90;;;;;;5033085;28;20308;-75
2021/03/07 02:24:44;;;;;;;18.43;9.93;;;0.00;99.90;;;;;;5032899;28;20213;-74
2021/03/07 02:27:11;;;;;;;19.67;10.60;;;0.10;99.90;;;;;;5033048;28;20215;-76
2021/03/07 02:29:37;;;;;;;21.27;11.07;;;0.20;99.90;;;;;;5032661;28;20210;-81
2021/03/07 02:32:06;;;;;;;20.27;10.67;;;0.00;99.90;;;;;;5033229;28;20207;-74
2021/03/07 02:34:36;;;;;;;18.63;11.27;;;0.00;99.90;;;;;;5032994;28;20197;-77
2021/03/07 02:37:07;;;;;;;22.03;11.40;;;0.10;99.90;;;;;;5032755;28;20219;-77
2021/03/07 02:39:36;;;;;;;21.87;10.50;;;0.20;99.90;;;;;;5033452;28;20665;-77
2021/03/07 02:42:08;;;;;;;19.83;11.27;;;0.10;99.90;;;;;;5032809;28;20284;-77
2021/03/07 02:44:37;;;;;;;20.10;11.33;;;0.10;99.90;;;;;;5032931;28;20279;-76
2021/03/07 02:47:06;;;;;;;27.00;11.43;;;0.10;99.90;;;;;;5032794;28;20199;-77
2021/03/07 02:49:33;;;;;;;26.20;11.90;;;0.10;99.90;;;;;;5032572;28;20205;-76
2021/03/07 02:52:02;;;;;;;21.27;11.73;;;0.00;99.90;;;;;;5033002;28;20230;-76
2021/03/07 02:54:29;;;;;;;21.20;11.73;;;0.10;99.90;;;;;;5033135;28;20205;-77
2021/03/07 02:56:57;;;;;;;23.90;12.00;;;0.10;99.90;;;;;;5032746;28;20257;-76
2021/03/07 02:59:27;;;;;;;22.43;11.80;;;0.20;99.90;;;;;;5032642;28;20234;-76
2021/03/07 03:01:56;;;;;;;29.73;13.23;;;0.10;99.90;;;;;;5032772;28;20229;-76
2021/03/07 03:04:24;;;;;;;24.77;12.40;;;0.10;99.90;;;;;;5032591;28;20289;-76
2021/03/07 03:06:52;;;;;;;21.13;11.70;;;0.20;99.90;;;;;;5033559;28;20242;-76
2021/03/07 03:09:21;;;;;;;28.13;13.10;;;0.20;99.90;;;;;;5036583;28;20198;-76
2021/03/07 03:11:51;;;;;;;24.03;12.43;;;0.20;99.90;;;;;;5036460;28;20206;-76
2021/03/07 03:14:18;;;;;;;21.87;12.50;;;0.10;99.90;;;;;;5036420;28;20246;-76
2021/03/07 03:16:48;;;;;;;22.63;12.40;;;0.10;99.90;;;;;;5036221;28;20664;-76
2021/03/07 03:19:16;;;;;;;21.83;12.13;;;0.20;99.90;;;;;;5036580;28;20232;-76
2021/03/07 03:21:45;;;;;;;26.37;12.23;;;0.10;99.90;;;;;;5036154;28;20262;-76
2021/03/07 03:24:13;;;;;;;23.57;13.20;;;0.00;99.90;;;;;;5036019;28;20744;-76
2021/03/07 03:26:39;;;;;;;26.47;13.30;;;0.00;99.90;;;;;;5036298;28;20202;-76
2021/03/07 03:29:07;;;;;;;21.97;13.10;;;0.00;99.90;;;;;;5036066;28;20263;-76
2021/03/07 03:31:34;;;;;;;21.37;12.73;;;0.00;99.90;;;;;;5036071;28;20291;-76
2021/03/07 03:34:02;;;;;;;23.60;12.97;;;0.10;99.90;;;;;;5035979;28;20666;-76
2021/03/07 03:36:29;;;;;;;23.83;12.73;;;0.10;99.90;;;;;;5036110;28;20292;-76
2021/03/07 03:38:59;;;;;;;28.90;13.13;;;0.20;99.90;;;;;;5035890;28;20226;-76
2021/03/07 03:41:30;;;;;;;27.47;13.60;;;0.20;99.90;;;;;;5035275;28;20200;-76
2021/03/07 03:43:58;;;;;;;25.90;13.77;;;0.20;99.90;;;;;;5035899;28;20235;-76
2021/03/07 03:46:25;;;;;;;27.70;13.97;;;0.10;99.90;;;;;;5035708;28;20200;-76
2021/03/07 03:48:58;;;;;;;25.47;14.17;;;0.00;99.90;;;;;;5035851;28;20197;-76
2021/03/07 03:51:26;;;;;;;23.10;14.33;;;-0.20;99.90;;;;;;5035879;28;20205;-76
2021/03/07 03:53:56;;;;;;;26.73;14.67;;;-0.10;99.90;;;;;;5035578;28;20649;-76
2021/03/07 03:56:25;;;;;;;31.00;15.27;;;-0.10;99.90;;;;;;5035551;28;20254;-77
2021/03/07 03:58:52;;;;;;;23.40;13.80;;;-0.10;99.90;;;;;;5035956;28;20575;-78
2021/03/07 04:01:20;;;;;;;25.13;14.40;;;-0.20;99.90;;;;;;5035446;28;20196;-77
2021/03/07 04:03:48;;;;;;;27.30;15.30;;;-0.20;99.90;;;;;;5035561;28;20197;-77
2021/03/07 04:06:16;;;;;;;27.53;14.30;;;-0.10;99.90;;;;;;5035428;28;20194;-76
2021/03/07 04:08:43;;;;;;;28.17;14.90;;;-0.10;99.90;;;;;;5035502;28;20250;-77
2021/03/07 04:11:10;;;;;;;30.10;14.43;;;0.00;99.90;;;;;;5035222;28;20201;-77
2021/03/07 04:13:37;;;;;;;28.70;14.07;;;-0.20;99.90;;;;;;5035533;28;20212;-77
2021/03/07 04:16:04;;;;;;;21.93;13.43;;;-0.50;99.90;;;;;;5035202;28;20729;-75
2021/03/07 04:18:31;;;;;;;29.97;15.50;;;-0.60;99.90;;;;;;5034558;28;20225;-77
2021/03/07 04:21:01;;;;;;;26.63;13.73;;;-0.70;99.90;;;;;;5035285;28;20565;-77
2021/03/07 04:23:27;;;;;;;23.00;13.80;;;-0.80;99.90;;;;;;5035079;28;20298;-77
2021/03/07 04:25:55;;;;;;;25.43;14.53;;;-0.90;99.90;;;;;;5035298;28;20201;-77
2021/03/07 04:28:23;;;;;;;27.93;14.73;;;-0.90;99.90;;;;;;5035032;28;20227;-77
2021/03/07 04:30:49;;;;;;;25.90;13.90;;;-0.90;99.90;;;;;;5035124;28;20657;-77
2021/03/07 04:33:16;;;;;;;27.87;13.97;;;-1.00;99.90;;;;;;5034928;28;20205;-77
2021/03/07 04:35:43;;;;;;;29.37;14.30;;;-1.00;99.90;;;;;;5034850;28;20288;-77
2021/03/07 04:38:09;;;;;;;27.10;14.10;;;-1.00;99.90;;;;;;5034680;28;20220;-77
2021/03/07 04:40:38;;;;;;;24.77;14.53;;;-0.90;99.90;;;;;;5034958;28;20200;-75
2021/03/07 04:43:06;;;;;;;29.60;14.07;;;-0.80;99.90;;;;;;5034966;28;20197;-77
2021/03/07 04:45:33;;;;;;;25.67;15.17;;;-0.70;99.90;;;;;;5034834;28;20201;-76
2021/03/07 04:48:00;;;;;;;28.13;15.03;;;-0.60;99.90;;;;;;5034509;28;20289;-75
2021/03/07 04:50:26;;;;;;;28.97;14.07;;;-0.50;99.90;;;;;;5034473;28;20203;-75
2021/03/07 04:52:52;;;;;;;25.77;15.13;;;-0.50;99.90;;;;;;5034547;28;20194;-77
2021/03/07 04:55:19;;;;;;;28.33;15.20;;;-0.50;99.90;;;;;;5034509;28;20204;-77
2021/03/07 04:57:45;;;;;;;27.23;14.30;;;-0.40;99.90;;;;;;5034509;28;20201;-77
2021/03/07 05:00:15;;;;;;;26.40;15.37;;;-0.40;99.90;;;;;;5034299;28;20237;-77
2021/03/07 05:02:41;;;;;;;26.83;14.23;;;-0.40;99.90;;;;;;5034559;28;20200;-77
2021/03/07 05:05:08;;;;;;;25.77;14.67;;;-0.50;99.90;;;;;;5034202;28;20201;-77
2021/03/07 05:07:35;;;;;;;25.20;14.23;;;-0.70;99.90;;;;;;5034245;28;20567;-74
2021/03/07 05:10:02;;;;;;;31.60;14.13;;;-0.60;99.90;;;;;;5034199;28;20204;-77
2021/03/07 05:12:28;;;;;;;24.80;14.20;;;-0.60;99.90;;;;;;5034339;28;20246;-77
2021/03/07 05:14:54;;;;;;;26.63;14.70;;;-0.60;99.90;;;;;;5034434;28;20237;-77
2021/03/07 05:17:24;;;;;;;29.43;15.27;;;-0.60;99.90;;;;;;5034032;28;20563;-76
2021/03/07 05:19:50;;;;;;;30.10;14.53;;;-0.50;99.90;;;;;;5034098;28;20225;-76
2021/03/07 05:22:17;;;;;;;38.67;23.38;;;-0.30;99.90;;;;;;5032968;28;20439;-76
2021/03/07 05:24:43;;;;;;;33.73;18.03;;;-0.50;99.90;;;;;;5033845;28;20666;-76
2021/03/07 05:27:10;;;;;;;30.03;15.97;;;-0.40;99.90;;;;;;5034021;28;20241;-76
2021/03/07 05:29:37;;;;;;;30.23;16.60;;;-0.40;99.90;;;;;;5033844;28;20259;-76
2021/03/07 05:32:06;;;;;;;34.90;16.03;;;-0.50;99.90;;;;;;5032965;28;20717;-76
2021/03/07 05:34:33;;;;;;;32.37;15.93;;;-0.50;99.90;;;;;;5033635;28;20194;-76
2021/03/07 05:37:00;;;;;;;27.47;15.30;;;-0.30;99.90;;;;;;5034035;28;20288;-76
2021/03/07 05:39:26;;;;;;;27.60;15.83;;;-0.30;99.90;;;;;;5033553;28;20791;-76
2021/03/07 05:41:53;;;;;;;31.67;16.97;;;-0.30;99.90;;;;;;5033439;28;20295;-76
2021/03/07 05:44:20;;;;;;;35.87;16.90;;;-0.50;99.90;;;;;;5033917;28;20215;-76
2021/03/07 05:46:46;;;;;;;43.60;16.77;;;-0.50;99.90;;;;;;5033467;28;20207;-76
2021/03/07 05:49:13;;;;;;;28.87;17.57;;;-0.50;99.90;;;;;;5033712;28;20251;-75
2021/03/07 05:51:43;;;;;;;31.53;16.87;;;-0.60;99.90;;;;;;5033739;28;20235;-76
2021/03/07 05:54:10;;;;;;;32.80;18.17;;;-0.60;99.90;;;;;;5033514;28;20197;-76
2021/03/07 05:56:38;;;;;;;41.20;17.77;;;-0.60;99.90;;;;;;5033828;28;20616;-77
2021/03/07 05:59:06;;;;;;;37.30;18.27;;;-0.60;99.90;;;;;;5033106;28;20227;-76
2021/03/07 06:01:34;;;;;;;36.23;18.53;;;-0.60;99.90;;;;;;5033591;28;20212;-76
2021/03/07 06:04:02;;;;;;;36.10;18.47;;;-0.50;99.90;;;;;;5033578;28;20579;-76
2021/03/07 06:06:29;;;;;;;36.07;19.70;;;-0.40;99.90;;;;;;5033909;28;20200;-76
2021/03/07 06:09:22;;;;;;;35.40;18.90;;;-0.40;99.90;;;;;;5033249;28;20220;-76
2021/03/07 06:11:50;;;;;;;37.13;18.97;;;-0.50;99.90;;;;;;5033153;28;20232;-76
2021/03/07 06:14:25;;;;;;;33.80;19.43;;;-0.30;99.90;;;;;;5033152;28;20211;-76
2021/03/07 06:17:06;;;;;;;34.20;19.97;;;-0.40;99.90;;;;;;5033353;28;20270;-76
2021/03/07 06:19:54;;;;;;;37.47;18.23;;;-0.40;99.90;;;;;;5033527;28;20232;-77
2021/03/07 06:22:20;;;;;;;37.23;20.97;;;-0.40;99.90;;;;;;5032943;28;20544;-76
2021/03/07 06:24:48;;;;;;;42.87;20.40;;;-0.40;99.90;;;;;;5032960;28;20653;-76
2021/03/07 06:27:17;;;;;;;34.90;19.03;;;-0.40;99.90;;;;;;5033339;28;20559;-77
2021/03/07 06:29:55;;;;;;;33.73;19.50;;;-0.40;99.90;;;;;;5033129;28;20229;-76
2021/03/07 06:32:22;;;;;;;37.53;20.00;;;-0.30;99.90;;;;;;5033011;28;20198;-76
2021/03/07 06:34:49;;;;;;;41.50;20.07;;;-0.20;99.90;;;;;;5032784;28;20299;-77
2021/03/07 06:37:16;;;;;;;37.13;19.73;;;-0.20;99.90;;;;;;5033083;28;20209;-77
2021/03/07 06:39:43;;;;;;;42.17;19.83;;;-0.20;99.90;;;;;;5033028;28;20306;-76
2021/03/07 06:42:12;;;;;;;36.00;19.67;;;-0.20;99.90;;;;;;5034401;28;20246;-76
2021/03/07 06:44:50;;;;;;;38.93;19.30;;;-0.20;99.90;;;;;;5037150;28;20238;-76
2021/03/07 06:47:17;;;;;;;37.90;20.37;;;-0.20;99.90;;;;;;5036936;28;20287;-76
2021/03/07 06:49:43;;;;;;;36.43;20.30;;;-0.10;99.90;;;;;;5037187;28;20197;-76
2021/03/07 06:52:17;;;;;;;35.90;19.70;;;-0.10;99.90;;;;;;5036994;28;20202;-76
2021/03/07 06:54:48;;;;;;;33.77;18.70;;;-0.10;99.90;;;;;;5037045;28;20287;-76
2021/03/07 06:57:27;;;;;;;39.50;20.23;;;-0.10;99.90;;;;;;5036878;28;20238;-76
2021/03/07 06:59:53;;;;;;;36.90;19.30;;;0.00;99.90;;;;;;5036428;28;20715;-76
2021/03/07 07:02:20;;;;;;;41.43;19.90;;;0.10;99.90;;;;;;5036915;28;20197;-76
2021/03/07 07:04:46;;;;;;;37.03;20.00;;;0.00;99.90;;;;;;5036862;28;20219;-76
2021/03/07 07:07:16;;;;;;;34.03;19.77;;;0.10;99.90;;;;;;5036751;28;20203;-76
2021/03/07 07:09:43;;;;;;;35.87;19.77;;;0.20;99.90;;;;;;5036473;28;20682;-76
2021/03/07 07:12:20;;;;;;;32.63;20.37;;;0.20;99.90;;;;;;5036484;28;20216;-76
2021/03/07 07:14:46;;;;;;;35.70;21.00;;;0.20;99.90;;;;;;5036385;28;20262;-77
2021/03/07 07:17:14;;;;;;;41.07;20.93;;;0.10;99.90;;;;;;5036335;28;20250;-76
2021/03/07 07:19:42;;;;;;;35.20;20.57;;;0.10;99.90;;;;;;5036489;28;20260;-77
2021/03/07 07:22:11;;;;;;;31.07;20.03;;;0.20;99.90;;;;;;5036250;28;20197;-77
2021/03/07 07:24:38;;;;;;;39.07;21.50;;;0.30;99.90;;;;;;5036268;28;20201;-77
2021/03/07 07:27:05;;;;;;;39.53;20.57;;;0.40;99.90;;;;;;5036196;28;20199;-74
2021/03/07 07:29:34;;;;;;;42.50;21.70;;;0.40;99.90;;;;;;5035943;28;20562;-77
2021/03/07 07:32:04;;;;;;;40.67;21.00;;;0.40;99.90;;;;;;5036256;28;20677;-76
2021/03/07 07:34:33;;;;;;;39.73;22.90;;;0.40;99.90;;;;;;5036182;28;20202;-76
2021/03/07 07:37:05;;;;;;;47.37;22.67;;;0.60;99.90;;;;;;5036314;28;20297;-74
2021/03/07 07:39:33;;;;;;;44.40;22.60;;;0.70;99.90;;;;;;5035858;28;20225;-77
2021/03/07 07:42:18;;;;;;;41.23;22.33;;;0.50;99.90;;;;;;5035863;28;20682;-74
2021/03/07 07:44:46;;;;;;;38.67;22.87;;;0.50;99.90;;;;;;5035804;28;20255;-77
2021/03/07 07:47:12;;;;;;;34.00;20.67;;;0.70;99.90;;;;;;5036124;28;20197;-76
2021/03/07 07:49:41;;;;;;;35.37;21.70;;;0.80;99.90;;;;;;5036089;28;20197;-77
2021/03/07 07:52:36;;;;;;;39.10;22.77;;;0.90;99.90;;;;;;5035655;28;20265;-76
2021/03/07 07:55:08;;;;;;;38.00;20.90;;;1.10;99.90;;;;;;5034898;28;20232;-76
2021/03/07 07:57:49;;;;;;;33.57;20.17;;;0.90;99.90;;;;;;5035798;28;20736;-76
2021/03/07 08:00:19;;;;;;;38.20;20.93;;;1.00;99.90;;;;;;5035479;28;20358;-76
2021/03/07 08:02:50;;;;;;;35.30;20.40;;;1.10;99.90;;;;;;5036025;28;20215;-76
2021/03/07 08:05:42;;;;;;;33.07;19.60;;;1.30;99.90;;;;;;5036278;28;20201;-76
2021/03/07 08:08:11;;;;;;;36.80;20.00;;;1.10;99.90;;;;;;5035551;28;20197;-76
2021/03/07 08:10:48;;;;;;;35.67;20.03;;;1.00;99.90;;;;;;5035709;28;20199;-76
2021/03/07 08:13:35;;;;;;;37.90;19.07;;;1.10;99.90;;;;;;5035926;28;20201;-76
2021/03/07 08:16:04;;;;;;;37.13;19.77;;;1.00;99.90;;;;;;5035052;28;20199;-76
2021/03/07 08:18:48;;;;;;;35.10;18.63;;;1.10;99.90;;;;;;5017668;28;20261;-76
2021/03/07 08:21:16;;;;;;;32.63;17.73;;;1.20;99.90;;;;;;5035346;28;20197;-76
2021/03/07 08:24:09;;;;;;;27.37;17.17;;;1.20;99.90;;;;;;5035154;28;20204;-76
2021/03/07 08:27:00;;;;;;;34.30;19.37;;;1.20;99.90;;;;;;5035128;28;20567;-77
2021/03/07 08:29:49;;;;;;;30.77;18.70;;;1.30;99.90;;;;;;5034643;28;20201;-77
2021/03/07 08:32:30;;;;;;;32.93;18.63;;;1.30;99.90;;;;;;5035372;28;20255;-77
2021/03/07 08:34:58;;;;;;;29.27;17.80;;;1.40;99.90;;;;;;5035094;28;20208;-77
2021/03/07 08:37:24;;;;;;;32.87;18.80;;;1.40;99.90;;;;;;5035243;28;20246;-74
2021/03/07 08:40:33;;;;;;;32.47;17.93;;;1.50;99.90;;;;;;5035028;28;20228;-74
2021/03/07 08:43:53;;;;;;;33.80;18.30;;;1.60;99.90;;;;;;5034979;28;20205;-77
2021/03/07 08:46:22;;;;;;;31.63;17.50;;;1.70;99.90;;;;;;5034796;28;20212;-75
2021/03/07 08:48:51;;;;;;;33.07;17.53;;;1.80;99.90;;;;;;5034707;28;20681;-77
2021/03/07 08:51:19;;;;;;;29.13;17.13;;;1.80;99.90;;;;;;5034878;28;20204;-77
2021/03/07 08:53:47;;;;;;;30.83;17.90;;;2.00;99.90;;;;;;5034627;28;20296;-77
2021/03/07 08:56:14;;;;;;;31.17;18.10;;;2.10;99.90;;;;;;5034576;28;20284;-77
2021/03/07 08:58:40;;;;;;;27.57;16.93;;;2.20;99.90;;;;;;5034380;28;20248;-77
2021/03/07 09:01:07;;;;;;;27.43;17.27;;;2.30;99.90;;;;;;5034592;28;20213;-76
2021/03/07 09:03:35;;;;;;;27.87;16.43;;;2.30;99.90;;;;;;5034843;28;20288;-77
2021/03/07 09:06:09;;;;;;;28.70;15.90;;;2.40;99.90;;;;;;5034493;28;20201;-74
2021/03/07 09:08:35;;;;;;;28.17;15.40;;;2.30;99.90;;;;;;5034723;28;20229;-74
2021/03/07 09:11:03;;;;;;;26.13;15.87;;;2.40;99.90;;;;;;5034565;28;20228;-75
2021/03/07 09:13:31;;;;;;;28.30;16.23;;;2.40;99.90;;;;;;5034110;28;20198;-75
2021/03/07 09:15:59;;;;;;;26.73;16.03;;;2.40;99.90;;;;;;5034132;28;20240;-74
2021/03/07 09:18:27;;;;;;;27.43;15.80;;;2.60;99.90;;;;;;5034110;28;20695;-78
2021/03/07 09:20:56;;;;;;;30.57;15.83;;;2.70;99.90;;;;;;5034357;28;20232;-77
2021/03/07 09:23:35;;;;;;;27.07;16.20;;;2.70;99.90;;;;;;5034257;28;20208;-77
2021/03/07 09:26:05;;;;;;;25.40;15.60;;;2.70;99.90;;;;;;5034274;28;20206;-76
2021/03/07 09:28:34;;;;;;;25.13;14.70;;;2.70;99.90;;;;;;5034351;28;20207;-77
2021/03/07 09:31:02;;;;;;;27.87;15.80;;;2.70;99.90;;;;;;5034146;28;20292;-77
2021/03/07 09:33:29;;;;;;;26.20;14.97;;;2.90;99.90;;;;;;5033960;28;20558;-76
2021/03/07 09:36:17;;;;;;;31.10;14.03;;;3.10;99.90;;;;;;5034325;28;20204;-76
2021/03/07 09:38:50;;;;;;;23.30;15.00;;;3.20;99.90;;;;;;5030670;28;20226;-76
2021/03/07 09:41:27;;;;;;;25.00;14.93;;;3.20;99.90;;;;;;5034338;28;20209;-76
2021/03/07 09:43:54;;;;;;;21.93;12.43;;;3.40;99.90;;;;;;5033942;28;20210;-77
2021/03/07 09:46:20;;;;;;;26.13;13.87;;;3.40;99.90;;;;;;5033843;28;20573;-76
2021/03/07 09:48:47;;;;;;;23.37;12.80;;;3.60;99.90;;;;;;5034072;28;20296;-76
2021/03/07 09:51:16;;;;;;;24.70;13.20;;;3.60;99.90;;;;;;5033901;28;20194;-77
2021/03/07 09:53:43;;;;;;;23.10;12.53;;;3.60;99.90;;;;;;5034280;28;20285;-76
2021/03/07 09:56:24;;;;;;;21.53;12.67;;;3.70;99.90;;;;;;5033834;28;20276;-77
2021/03/07 09:58:50;;;;;;;24.13;12.80;;;3.90;99.90;;;;;;5033837;28;20220;-76
2021/03/07 10:01:17;;;;;;;24.23;12.50;;;4.00;99.90;;;;;;5034056;28;20293;-77
2021/03/07 10:03:44;;;;;;;22.07;11.83;;;4.00;99.90;;;;;;5034320;28;20298;-77
2021/03/07 10:06:12;;;;;;;17.67;10.33;;;4.10;99.90;;;;;;5033658;28;20202;-76
2021/03/07 10:08:40;;;;;;;18.17;10.63;;;3.90;99.90;;;;;;5033669;28;20285;-77
2021/03/07 10:11:12;;;;;;;17.83;9.80;;;3.80;99.90;;;;;;5033948;28;20206;-74
2021/03/07 10:13:39;;;;;;;17.33;10.10;;;4.10;99.90;;;;;;5033738;28;20206;-74
2021/03/07 10:16:06;;;;;;;17.30;9.70;;;4.30;99.90;;;;;;5033635;28;20285;-74
2021/03/07 10:18:33;;;;;;;13.43;8.43;;;4.40;99.90;;;;;;5033751;28;20206;-77
2021/03/07 10:20:59;;;;;;;12.70;8.53;;;4.60;99.90;;;;;;5033081;28;20668;-76
2021/03/07 10:23:27;;;;;;;12.20;7.50;;;4.70;99.90;;;;;;5033515;28;20300;-76
2021/03/07 10:25:53;;;;;;;13.00;8.03;;;4.90;99.90;;;;;;5033611;28;20198;-75
2021/03/07 10:28:23;;;;;;;12.57;7.43;;;6.30;99.90;;;;;;5033627;28;20198;-75
2021/03/07 10:30:51;;;;;;;9.53;5.73;;;7.80;99.90;;;;;;5034078;28;20658;-75
2021/03/07 10:33:19;;;;;;;10.73;6.20;;;8.50;99.90;;;;;;5033578;28;20269;-75
2021/03/07 10:36:07;;;;;;;12.23;6.13;;;8.80;99.90;;;;;;5032919;28;20230;-76
2021/03/07 10:38:36;;;;;;;9.30;6.13;;;9.00;99.90;;;;;;5027205;28;20201;-75
2021/03/07 10:41:24;;;;;;;11.83;5.93;;;8.50;99.90;;;;;;5033087;28;20204;-74
2021/03/07 10:43:52;;;;;;;8.43;5.70;;;9.10;99.90;;;;;;5033249;28;20298;-74
2021/03/07 10:46:26;;;;;;;10.67;5.50;;;8.20;99.90;;;;;;5033519;28;20201;-76
2021/03/07 10:48:53;;;;;;;9.37;5.43;;;8.00;99.90;;;;;;5033053;28;20192;-76
2021/03/07 10:51:20;;;;;;;9.80;5.10;;;7.30;99.90;;;;;;5033033;28;20206;-74
2021/03/07 10:53:46;;;;;;;8.13;5.10;;;6.90;99.90;;;;;;5033456;28;20226;-75
2021/03/07 10:56:13;;;;;;;10.50;5.27;;;7.50;99.90;;;;;;5032932;28;20285;-74
2021/03/07 10:58:39;;;;;;;8.23;5.40;;;8.10;99.90;;;;;;5033050;28;20289;-75
2021/03/07 11:01:07;;;;;;;8.57;5.60;;;7.40;99.90;;;;;;5033035;28;20294;-74
2021/03/07 11:03:33;;;;;;;8.87;5.20;;;6.90;99.90;;;;;;5032871;28;20205;-74
2021/03/07 11:06:00;;;;;;;7.57;5.27;;;7.40;99.90;;;;;;5032720;28;20198;-74
2021/03/07 11:08:26;;;;;;;9.63;5.30;;;7.90;99.90;;;;;;5033270;28;20202;-74
2021/03/07 11:10:52;;;;;;;8.63;5.27;;;8.00;99.90;;;;;;5033032;28;20240;-74
2021/03/07 11:13:19;;;;;;;7.40;4.33;;;7.40;99.90;;;;;;5033059;28;20225;-74
2021/03/07 11:15:45;;;;;;;8.43;4.83;;;8.20;99.90;;;;;;5032900;28;20195;-74
2021/03/07 11:18:12;;;;;;;7.17;4.57;;;9.50;99.90;;;;;;5032572;28;20203;-74
2021/03/07 11:20:38;;;;;;;11.37;5.30;;;10.10;99.90;;;;;;5032482;28;20222;-74
2021/03/07 11:23:05;;;;;;;8.53;5.20;;;9.50;99.90;;;;;;5032700;28;20608;-74
2021/03/07 11:25:32;;;;;;;6.90;4.83;;;9.00;99.90;;;;;;5029870;28;20246;-73
2021/03/07 11:27:58;;;;;;;8.10;5.30;;;8.40;99.90;;;;;;5031181;28;20303;-78
2021/03/07 11:30:25;;;;;;;9.13;4.93;;;7.90;99.90;;;;;;5034329;28;20293;-78
2021/03/07 11:32:51;;;;;;;10.00;5.33;;;7.60;99.90;;;;;;5035429;28;20229;-78
2021/03/07 11:35:19;;;;;;;11.67;5.20;;;7.20;99.90;;;;;;5036010;28;20289;-78
2021/03/07 11:37:45;;;;;;;12.17;4.87;;;6.70;99.90;;;;;;5035450;28;20201;-78
2021/03/07 11:40:12;;;;;;;7.13;4.50;;;6.60;99.90;;;;;;5036059;28;20233;-78
2021/03/07 11:42:38;;;;;;;7.57;4.87;;;6.60;99.90;;;;;;5035496;28;20197;-78
2021/03/07 11:45:06;;;;;;;8.53;5.13;;;6.60;99.90;;;;;;5033962;28;20405;-78
2021/03/07 11:47:33;;;;;;;9.57;4.93;;;6.40;99.90;;;;;;5035077;28;20282;-78
2021/03/07 11:49:59;;;;;;;11.57;4.87;;;6.30;99.90;;;;;;5034642;28;20195;-81
2021/03/07 11:52:26;;;;;;;11.63;5.47;;;6.20;99.90;;;;;;5034837;28;20241;-78
2021/03/07 11:54:53;;;;;;;10.40;5.23;;;6.00;99.90;;;;;;5034449;28;20297;-78
2021/03/07 11:57:20;;;;;;;8.73;4.60;;;6.30;99.90;;;;;;5030764;28;20195;-75
2021/03/07 11:59:46;;;;;;;8.60;4.87;;;7.10;99.90;;;;;;5020403;28;20234;-78
2021/03/07 12:02:12;;;;;;;7.63;4.60;;;7.40;99.90;;;;;;5032677;28;20198;-77
2021/03/07 12:04:39;;;;;;;9.20;4.93;;;7.80;99.90;;;;;;5033665;28;20198;-77
2021/03/07 12:07:06;;;;;;;12.97;5.30;;;8.10;99.90;;;;;;5029267;28;20215;-77
2021/03/07 12:09:42;;;;;;;9.53;4.77;;;8.50;99.90;;;;;;5017124;28;20247;-77
2021/03/07 12:12:10;;;;;;;9.13;4.87;;;9.30;99.90;;;;;;5029201;28;20216;-77
2021/03/07 12:14:36;;;;;;;8.03;4.80;;;10.00;99.90;;;;;;5032151;28;20297;-77
2021/03/07 12:17:03;;;;;;;8.47;4.40;;;9.30;99.90;;;;;;5037477;28;20203;-76
2021/03/07 12:19:29;;;;;;;9.93;4.73;;;9.30;99.90;;;;;;5036256;28;20220;-77
2021/03/07 12:21:56;;;;;;;6.43;4.23;;;9.30;99.90;;;;;;5033613;28;20289;-76
2021/03/07 12:24:23;;;;;;;6.53;4.50;;;8.70;99.90;;;;;;5027540;28;20206;-78
2021/03/07 12:26:50;;;;;;;7.37;4.17;;;7.80;99.90;;;;;;5032432;28;20207;-76
2021/03/07 12:29:16;;;;;;;9.37;4.90;;;7.30;99.90;;;;;;5033279;28;20295;-77
2021/03/07 12:31:43;;;;;;;6.97;4.90;;;6.90;99.90;;;;;;5033590;28;20236;-77
2021/03/07 12:34:09;;;;;;;8.63;4.57;;;6.90;99.90;;;;;;5033666;28;20190;-77
2021/03/07 12:36:35;;;;;;;8.50;4.93;;;7.40;99.90;;;;;;5032377;28;20206;-77
2021/03/07 12:39:02;;;;;;;7.43;4.80;;;7.70;99.90;;;;;;5032421;28;20236;-77
2021/03/07 12:41:28;;;;;;;8.50;5.20;;;8.20;99.90;;;;;;5028911;28;20199;-77
2021/03/07 12:43:56;;;;;;;9.97;4.67;;;8.60;99.90;;;;;;5031484;28;20545;-77
2021/03/07 12:46:22;;;;;;;6.90;4.50;;;8.60;99.90;;;;;;5032626;28;20212;-77